Aviation Digital Data Service (ADDS)

Output produced by TAFs form (1957 UTC 25 February 2018)
found at http://aviationweather.gov/adds/tafs/
 
METAR text: VCBI 251910Z 02003KT 350V060 9000 SCT018 26/22 Q1010 NOSIG
Conditions at: VCBI (COLOMBO/KATUNAYA, LK) observed 1910 UTC 25 February 2018
Temperature: 26.0°C (79°F)
Dewpoint: 22.0°C (72°F) [RH = 79%]
Pressure (altimeter): 29.82 inches Hg (1010.0 mb)
Winds: from the NNE (20 degrees) at 3 MPH (3 knots; 1.6 m/s)
Visibility: 6 miles (9 km)
Ceiling: at least 12,000 feet AGL
Clouds: scattered clouds at 1800 feet AGL
Weather: no significant weather observed at this time

Forecast for: VCBI (COLOMBO/KATUNAYA, LK)
Text: TAF VCBI 251540Z 2518/2624 05008G20KT 9999 SCT018 TX32/2607Z TN24/2600Z
Forecast period: 1800 UTC 25 February 2018 to 0000 UTC 27 February 2018
Forecast type: FROM: standard forecast or significant change
Winds: from the NE (50 degrees) at 9 MPH (8 knots; 4.2 m/s)
gusting to 23 MPH (20 knots; 10.4 m/s)
Visibility: 6 or more miles (10+ km)
Clouds: scattered clouds at 1800 feet AGL
Weather: no significant weather forecast for this period
Text: PROB40
Forecast period: 1000 to 1600 UTC 26 February 2018
Forecast type: TEMPORARY: The following changes expected for less than half the time period
Visibility: 4 miles (6 km)
Ceiling: 6000 feet AGL
Clouds: scattered clouds at 1600 feet AGL
few clouds at 1800 feet AGL
broken clouds at 6000 feet AGL
Weather: SHRA TSRA  (rain showers, rain associated with thunderstorm(s))